Time;durP1;ratioP1;P1;durP2;ratioP2;P2;SDS_P1;SDS_P2;PMS_P1;PMS_P2;Temp;Humidity;BMP_temperature;BMP_pressure;BME280_temperature;BME280_humidity;BME280_pressure;Samples;Min_cycle;Max_cycle;Signal;HPM_P1;HPM_P2
2021/12/09 00:02:49;;;;;;;;;;;;;;;-13.16;67.73;98781.97;6399715;27;20445;-63
2021/12/09 00:05:52;;;;;;;;;;;;;;;-13.21;67.61;98796.03;6399753;27;20492;-64
2021/12/09 00:08:54;;;;;;;;;;;;;;;-13.06;67.39;98795.16;6399248;27;19923;-63
2021/12/09 00:11:59;;;;;;;;;;;;;;;-13.27;67.00;98798.22;6398937;27;19927;-64
2021/12/09 00:15:04;;;;;;;;;;;;;;;-13.15;67.27;98796.38;6398934;27;19930;-64
2021/12/09 00:18:05;;;;;;;;;;;;;;;-13.06;66.69;98795.16;6399613;27;20409;-64
2021/12/09 00:21:06;;;;;;;;;;;;;;;-13.12;65.78;98785.53;6399300;27;20312;-63
2021/12/09 00:24:08;;;;;;;;;;;;;;;-13.36;66.56;98785.00;6399291;27;19923;-64
2021/12/09 00:27:09;;;;;;;;;;;;;;;-13.15;65.59;98786.25;6399097;27;19930;-65
2021/12/09 00:30:13;;;;;;;;;;;;;;;-13.33;66.18;98782.69;6399031;27;19923;-64
2021/12/09 00:33:17;;;;;;;;;;;;;;;-13.35;66.24;98791.84;6399359;27;20373;-63
2021/12/09 00:36:27;;;;;;;;;;;;;;;-13.47;66.36;98786.03;6399212;27;19927;-63
2021/12/09 00:39:30;;;;;;;;;;;;;;;-13.50;66.80;98788.38;6399069;27;19923;-63
2021/12/09 00:42:34;;;;;;;;;;;;;;;-13.47;66.54;98783.50;6399106;27;19923;-64
2021/12/09 00:45:35;;;;;;;;;;;;;;;-13.37;65.95;98783.25;6398158;27;19923;-64
2021/12/09 00:48:37;;;;;;;;;;;;;;;-13.32;65.59;98786.94;6398947;27;19919;-64
2021/12/09 00:51:38;;;;;;;;;;;;;;;-13.36;64.96;98795.13;6398813;27;20472;-64
2021/12/09 00:54:41;;;;;;;;;;;;;;;-13.32;65.11;98781.88;6398080;27;19923;-64
2021/12/09 00:57:44;;;;;;;;;;;;;;;-13.53;64.93;98775.53;6398685;27;19923;-64
2021/12/09 01:00:50;;;;;;;;;;;;;;;-13.54;65.15;98781.41;6398938;27;19923;-65
2021/12/09 01:03:52;;;;;;;;;;;;;;;-13.52;65.16;98783.25;6397781;27;19962;-64
2021/12/09 01:06:53;;;;;;;;;;;;;;;-13.51;64.91;98781.56;6398400;27;19945;-64
2021/12/09 01:09:54;;;;;;;;;;;;;;;-13.61;65.05;98783.56;6398388;27;19930;-64
2021/12/09 01:12:55;;;;;;;;;;;;;;;-13.45;64.42;98785.34;6398405;27;20406;-64
2021/12/09 01:15:56;;;;;;;;;;;;;;;-13.55;64.05;98772.94;6398121;27;20418;-64
2021/12/09 01:18:58;;;;;;;;;;;;;;;-13.32;63.94;98784.41;6398274;27;19923;-63
2021/12/09 01:21:59;;;;;;;;;;;;;;;-13.33;62.69;98780.16;6397977;27;19923;-63
2021/12/09 01:25:00;;;;;;;;;;;;;;;-13.20;61.68;98782.56;6394840;27;19923;-64
2021/12/09 01:28:02;;;;;;;;;;;;;;;-13.38;61.77;98786.59;6398293;27;19923;-63
2021/12/09 01:31:06;;;;;;;;;;;;;;;-13.40;61.78;98783.09;6397378;27;19923;-64
2021/12/09 01:34:10;;;;;;;;;;;;;;;-13.34;61.27;98793.56;6398140;27;19929;-63
2021/12/09 01:37:14;;;;;;;;;;;;;;;-13.48;61.19;98785.16;6397820;27;19927;-63
2021/12/09 01:40:15;;;;;;;;;;;;;;;-13.53;61.27;98788.19;6397840;27;19929;-64
2021/12/09 01:43:17;;;;;;;;;;;;;;;-13.61;60.77;98788.63;6397086;27;19923;-64
2021/12/09 01:46:22;;;;;;;;;;;;;;;-13.54;61.23;98791.53;6397549;27;19923;-63
2021/12/09 01:49:23;;;;;;;;;;;;;;;-13.55;60.61;98799.91;6378748;27;19922;-64
2021/12/09 01:52:24;;;;;;;;;;;;;;;-13.78;60.84;98799.41;6397512;27;19923;-64
2021/12/09 01:55:30;;;;;;;;;;;;;;;-13.77;60.75;98801.13;6397591;27;19923;-63
2021/12/09 01:58:34;;;;;;;;;;;;;;;-13.93;61.21;98803.50;6397541;27;19923;-63
2021/12/09 02:01:37;;;;;;;;;;;;;;;-13.76;61.13;98802.88;6397492;27;19930;-64
2021/12/09 02:04:39;;;;;;;;;;;;;;;-13.82;61.27;98797.44;6397542;27;20021;-64
2021/12/09 02:07:40;;;;;;;;;;;;;;;-14.05;61.58;98799.44;6397459;27;19945;-64
2021/12/09 02:10:42;;;;;;;;;;;;;;;-14.02;61.82;98794.56;6379027;27;19923;-64
2021/12/09 02:13:44;;;;;;;;;;;;;;;-14.03;61.77;98795.34;6396116;27;20007;-63
2021/12/09 02:16:45;;;;;;;;;;;;;;;-14.03;62.06;98797.88;6397122;27;19930;-64
2021/12/09 02:19:46;;;;;;;;;;;;;;;-14.02;61.62;98792.03;6397090;27;20060;-64
2021/12/09 02:22:48;;;;;;;;;;;;;;;-14.41;62.04;98792.06;6397037;27;19930;-63
2021/12/09 02:25:49;;;;;;;;;;;;;;;-14.31;62.58;98789.38;6396996;27;19923;-63
2021/12/09 02:28:52;;;;;;;;;;;;;;;-14.21;62.06;98788.25;6397171;27;19930;-63
2021/12/09 02:31:57;;;;;;;;;;;;;;;-14.23;62.06;98785.66;6395967;27;19930;-62
2021/12/09 02:34:59;;;;;;;;;;;;;;;-14.22;61.85;98779.81;6397700;27;19923;-63
2021/12/09 02:38:00;;;;;;;;;;;;;;;-14.58;62.16;98774.22;6401358;27;20098;-64
2021/12/09 02:41:02;;;;;;;;;;;;;;;-14.60;62.51;98775.78;6400872;27;19923;-64
2021/12/09 02:44:05;;;;;;;;;;;;;;;-14.78;63.15;98784.72;6401207;27;19922;-63
2021/12/09 02:47:06;;;;;;;;;;;;;;;-14.72;63.38;98775.91;6400944;27;19945;-64
2021/12/09 02:50:08;;;;;;;;;;;;;;;-14.57;63.17;98776.00;6399899;27;20296;-63
2021/12/09 02:53:09;;;;;;;;;;;;;;;-14.42;62.50;98765.06;6401694;27;19923;-63
2021/12/09 02:56:13;;;;;;;;;;;;;;;-14.38;62.11;98770.38;6401656;27;20388;-63
2021/12/09 02:59:17;;;;;;;;;;;;;;;-14.22;62.00;98778.94;6401228;27;19923;-63
2021/12/09 03:02:19;;;;;;;;;;;;;;;-14.41;61.59;98792.06;6401283;27;19923;-63
2021/12/09 03:05:24;;;;;;;;;;;;;;;-14.55;61.64;98784.56;6401152;27;19923;-63
2021/12/09 03:08:34;;;;;;;;;;;;;;;-14.55;62.16;98788.72;6399797;27;19923;-64
2021/12/09 03:11:38;;;;;;;;;;;;;;;-14.62;62.35;98787.44;6400974;27;19922;-64
2021/12/09 03:14:39;;;;;;;;;;;;;;;-14.59;62.09;98786.78;6400234;27;19923;-63
2021/12/09 03:17:40;;;;;;;;;;;;;;;-14.68;62.24;98782.00;6401104;27;19930;-63
2021/12/09 03:20:44;;;;;;;;;;;;;;;-14.51;62.53;98778.88;6400893;27;20307;-63
2021/12/09 03:23:45;;;;;;;;;;;;;;;-14.63;62.38;98785.72;6400038;27;20309;-63
2021/12/09 03:26:56;;;;;;;;;;;;;;;-14.72;62.79;98786.00;6400112;27;19923;-63
2021/12/09 03:29:56;;;;;;;;;;;;;;;-14.76;63.34;98778.97;6399616;27;19923;-63
2021/12/09 03:32:58;;;;;;;;;;;;;;;-14.72;62.92;98765.78;6400467;27;19923;-63
2021/12/09 03:36:04;;;;;;;;;;;;;;;-14.84;63.46;98764.13;6400545;27;19975;-64
2021/12/09 03:39:08;;;;;;;;;;;;;;;-14.84;63.65;98774.22;6400399;27;20304;-64
2021/12/09 03:42:11;;;;;;;;;;;;;;;-14.70;63.81;98773.44;6399529;27;19930;-64
2021/12/09 03:45:13;;;;;;;;;;;;;;;-14.55;63.18;98765.97;6399102;27;19930;-64
2021/12/09 03:48:14;;;;;;;;;;;;;;;-14.22;61.54;98769.69;6398623;27;19923;-64
2021/12/09 03:51:17;;;;;;;;;;;;;;;-14.28;60.49;98769.31;6400098;27;19923;-65
2021/12/09 03:54:19;;;;;;;;;;;;;;;-14.37;59.67;98773.81;6399858;27;20015;-63
2021/12/09 03:57:20;;;;;;;;;;;;;;;-14.35;60.01;98778.19;6399781;27;19923;-64
2021/12/09 04:00:23;;;;;;;;;;;;;;;-14.28;59.31;98781.97;6399295;27;19934;-64
2021/12/09 04:03:24;;;;;;;;;;;;;;;-14.52;59.60;98784.75;6399816;27;20010;-63
2021/12/09 04:06:25;;;;;;;;;;;;;;;-14.57;59.32;98775.13;6399160;27;19974;-64
2021/12/09 04:09:26;;;;;;;;;;;;;;;-14.69;59.81;98780.25;6399290;27;19929;-63
2021/12/09 04:12:27;;;;;;;;;;;;;;;-14.53;59.41;98785.50;6398987;27;19923;-63
2021/12/09 04:15:31;;;;;;;;;;;;;;;-14.48;58.78;98781.59;6399859;27;19923;-65
2021/12/09 04:18:32;;;;;;;;;;;;;;;-14.68;59.47;98776.97;6399473;27;19930;-63
2021/12/09 04:21:33;;;;;;;;;;;;;;;-14.76;59.41;98773.06;6399192;27;19923;-66
2021/12/09 04:24:35;;;;;;;;;;;;;;;-14.86;60.23;98768.19;6399451;27;19923;-64
2021/12/09 04:27:38;;;;;;;;;;;;;;;-14.80;59.89;98766.94;6399108;27;19923;-64
2021/12/09 04:30:40;;;;;;;;;;;;;;;-14.56;59.17;98762.56;6380842;27;19923;-64
2021/12/09 04:33:42;;;;;;;;;;;;;;;-14.63;59.27;98775.59;6398517;27;19923;-64
2021/12/09 04:36:43;;;;;;;;;;;;;;;-14.82;59.87;98777.72;6399125;27;19923;-64
2021/12/09 04:39:44;;;;;;;;;;;;;;;-14.76;60.41;98773.06;6399010;27;19923;-64
2021/12/09 04:42:45;;;;;;;;;;;;;;;-14.64;60.33;98783.94;6398870;27;19927;-63
2021/12/09 04:45:47;;;;;;;;;;;;;;;-14.50;60.17;98785.66;6399027;27;19941;-63
2021/12/09 04:48:48;;;;;;;;;;;;;;;-14.38;60.18;98792.25;6398960;27;20273;-64
2021/12/09 04:51:52;;;;;;;;;;;;;;;-14.14;58.94;98792.94;6398072;27;19929;-63
2021/12/09 04:54:53;;;;;;;;;;;;;;;-14.19;59.00;98779.13;6397699;27;19922;-63
2021/12/09 04:57:54;;;;;;;;;;;;;;;-14.18;58.90;98776.72;6398212;27;20396;-64
2021/12/09 05:00:56;;;;;;;;;;;;;;;-13.90;58.58;98775.84;6398086;27;19930;-64
2021/12/09 05:04:00;;;;;;;;;;;;;;;-13.91;58.55;98761.47;6397821;27;19931;-62
2021/12/09 05:07:01;;;;;;;;;;;;;;;-13.72;57.82;98768.53;6398271;27;20021;-64
2021/12/09 05:10:03;;;;;;;;;;;;;;;-13.65;57.54;98766.44;6398394;27;19923;-63
2021/12/09 05:13:04;;;;;;;;;;;;;;;-13.78;58.10;98769.03;6398449;27;20407;-64
2021/12/09 05:16:09;;;;;;;;;;;;;;;-13.62;58.51;98774.19;6398219;27;20399;-65
2021/12/09 05:19:11;;;;;;;;;;;;;;;-13.46;57.73;98780.19;6397923;27;19927;-63
2021/12/09 05:22:13;;;;;;;;;;;;;;;-13.42;58.02;98779.59;6397348;27;19927;-64
2021/12/09 05:25:14;;;;;;;;;;;;;;;-13.16;57.43;98776.91;6396992;27;19923;-64
2021/12/09 05:28:18;;;;;;;;;;;;;;;-13.18;57.18;98778.47;6398028;27;19923;-64
2021/12/09 05:34:46;;;;;;;;;;;;;;;-12.85;55.65;98776.09;6397764;27;19926;-64
2021/12/09 05:37:48;;;;;;;;;;;;;;;-12.67;54.19;98777.16;6397638;27;19923;-63
2021/12/09 05:40:50;;;;;;;;;;;;;;;-12.77;54.18;98774.03;6397761;27;19923;-63
2021/12/09 05:43:51;;;;;;;;;;;;;;;-12.74;53.03;98774.19;6397171;27;19930;-64
2021/12/09 05:46:55;;;;;;;;;;;;;;;-12.77;53.55;98785.03;6397358;27;19923;-64
2021/12/09 05:49:59;;;;;;;;;;;;;;;-12.88;54.02;98791.13;6397368;27;20341;-63
2021/12/09 05:53:03;;;;;;;;;;;;;;;-12.69;52.54;98773.66;6397525;27;19927;-63
2021/12/09 05:56:06;;;;;;;;;;;;;;;-12.82;52.51;98794.06;6397250;27;19927;-64
2021/12/09 05:59:10;;;;;;;;;;;;;;;-12.70;51.41;98784.59;6397418;27;19930;-64
2021/12/09 06:02:13;;;;;;;;;;;;;;;-12.78;51.81;98782.41;6396484;27;19923;-64
2021/12/09 06:05:14;;;;;;;;;;;;;;;-12.85;51.96;98796.38;6397315;27;19923;-62
2021/12/09 06:08:15;;;;;;;;;;;;;;;-12.85;51.80;98811.59;6397239;27;20452;-64
2021/12/09 06:11:19;;;;;;;;;;;;;;;-12.71;51.11;98813.28;6401024;27;20380;-63
2021/12/09 06:14:20;;;;;;;;;;;;;;;-12.62;50.80;98804.44;6402418;27;19922;-63
2021/12/09 06:17:22;;;;;;;;;;;;;;;-12.54;50.81;98805.72;6402428;27;19929;-64
2021/12/09 06:20:27;;;;;;;;;;;;;;;-12.45;49.55;98819.81;6401604;27;20407;-64
2021/12/09 06:23:28;;;;;;;;;;;;;;;-12.57;49.76;98810.63;6401888;27;19937;-64
2021/12/09 06:26:32;;;;;;;;;;;;;;;-12.38;49.30;98805.81;6402000;27;19927;-63
2021/12/09 06:29:34;;;;;;;;;;;;;;;-12.28;49.01;98808.09;6401092;27;19923;-63
2021/12/09 06:32:35;;;;;;;;;;;;;;;-12.27;50.13;98808.94;6402077;27;19923;-64
2021/12/09 06:35:37;;;;;;;;;;;;;;;-11.99;50.11;98796.13;6402076;27;19933;-64
2021/12/09 06:38:38;;;;;;;;;;;;;;;-11.74;49.21;98789.78;6401535;27;20027;-64
2021/12/09 06:41:39;;;;;;;;;;;;;;;-11.61;49.38;98782.00;6400487;27;20396;-63
2021/12/09 06:44:40;;;;;;;;;;;;;;;-11.66;49.82;98784.31;6400712;27;19923;-62
2021/12/09 06:47:41;;;;;;;;;;;;;;;-11.44;49.58;98778.66;6401542;27;19923;-63
2021/12/09 06:50:42;;;;;;;;;;;;;;;-11.25;48.76;98783.03;6400283;27;19923;-62
2021/12/09 06:53:43;;;;;;;;;;;;;;;-11.30;48.73;98782.78;6401017;27;20446;-64
2021/12/09 06:56:47;;;;;;;;;;;;;;;-11.11;49.33;98783.75;6401748;27;19923;-64
2021/12/09 06:59:53;;;;;;;;;;;;;;;-10.83;47.37;98780.03;6401493;27;19923;-63
2021/12/09 07:02:59;;;;;;;;;;;;;;;-10.82;47.45;98782.63;6401203;27;19931;-63
2021/12/09 07:06:06;;;;;;;;;;;;;;;-10.49;46.30;98780.88;6400244;27;19923;-63
2021/12/09 07:09:07;;;;;;;;;;;;;;;-10.28;46.13;98782.69;6401304;27;20013;-63
2021/12/09 07:12:08;;;;;;;;;;;;;;;-9.75;45.05;98776.66;6401187;27;19930;-64
2021/12/09 07:15:14;;;;;;;;;;;;;;;-7.16;41.41;98788.75;6400884;27;20387;-64
2021/12/09 07:18:15;;;;;;;;;;;;;;;-5.32;37.26;98769.88;6401079;27;20304;-64
2021/12/09 07:21:17;;;;;;;;;;;;;;;-4.30;35.02;98758.84;6399930;27;19979;-63
2021/12/09 07:24:21;;;;;;;;;;;;;;;-3.58;34.27;98766.47;6400301;27;19931;-64
2021/12/09 07:27:22;;;;;;;;;;;;;;;-3.23;33.78;98765.50;6381784;27;19945;-64
2021/12/09 07:30:24;;;;;;;;;;;;;;;-3.49;33.59;98777.81;6399467;27;19926;-64
2021/12/09 07:33:25;;;;;;;;;;;;;;;-4.35;33.78;98764.72;6400118;27;20400;-63
2021/12/09 07:36:26;;;;;;;;;;;;;;;-4.44;34.59;98764.50;6400445;27;19919;-64
2021/12/09 07:39:27;;;;;;;;;;;;;;;-3.95;34.61;98750.22;6399696;27;19927;-65
2021/12/09 07:42:31;;;;;;;;;;;;;;;-3.91;33.92;98752.88;6399398;27;19923;-63
2021/12/09 07:45:34;;;;;;;;;;;;;;;-4.03;33.13;98756.88;6399793;27;19923;-63
2021/12/09 07:48:35;;;;;;;;;;;;;;;-4.63;34.24;98750.31;6399326;27;19923;-63
2021/12/09 07:51:39;;;;;;;;;;;;;;;-4.83;33.94;98754.94;6399089;27;19931;-64
2021/12/09 07:54:40;;;;;;;;;;;;;;;-4.24;34.75;98747.00;6399409;27;20311;-63
2021/12/09 07:57:42;;;;;;;;;;;;;;;-3.21;32.41;98732.91;6400001;27;19922;-64
2021/12/09 08:00:43;;;;;;;;;;;;;;;-2.03;30.21;98731.50;6399188;27;19929;-64
2021/12/09 08:03:45;;;;;;;;;;;;;;;-0.74;28.87;98733.09;6398858;27;19923;-64
2021/12/09 08:06:46;;;;;;;;;;;;;;;1.08;26.81;98743.78;6398617;27;19923;-64
2021/12/09 08:09:47;;;;;;;;;;;;;;;2.33;24.51;98749.88;6399918;27;19926;-64
2021/12/09 08:12:51;;;;;;;;;;;;;;;2.65;24.14;98742.00;6399612;27;19923;-63
2021/12/09 08:15:54;;;;;;;;;;;;;;;3.50;23.93;98745.91;6398485;27;19923;-63
2021/12/09 08:18:58;;;;;;;;;;;;;;;4.69;21.97;98738.75;6399568;27;20304;-64
2021/12/09 08:21:59;;;;;;;;;;;;;;;4.55;21.50;98758.03;6398291;27;19930;-62
2021/12/09 08:25:06;;;;;;;;;;;;;;;4.10;21.89;98752.41;6399503;27;19923;-62
2021/12/09 08:28:07;;;;;;;;;;;;;;;5.12;21.33;98753.03;6398290;27;19923;-63
2021/12/09 08:31:08;;;;;;;;;;;;;;;6.09;20.88;98744.66;6398912;27;19923;-63
2021/12/09 08:34:10;;;;;;;;;;;;;;;4.95;20.94;98742.78;6398491;27;19923;-64
2021/12/09 08:37:12;;;;;;;;;;;;;;;4.05;21.87;98742.91;6398056;27;19923;-63
2021/12/09 08:40:17;;;;;;;;;;;;;;;4.34;21.97;98751.31;6399107;27;20022;-63
2021/12/09 08:43:21;;;;;;;;;;;;;;;4.20;21.59;98748.84;6398796;27;20311;-65
2021/12/09 08:46:22;;;;;;;;;;;;;;;4.61;21.13;98751.00;6398634;27;19996;-63
2021/12/09 08:49:25;;;;;;;;;;;;;;;5.22;20.81;98752.03;6398656;27;19922;-65
2021/12/09 08:52:26;;;;;;;;;;;;;;;5.88;20.49;98740.59;6398759;27;19954;-65
2021/12/09 08:55:28;;;;;;;;;;;;;;;6.14;20.22;98742.81;6397862;27;19923;-63
2021/12/09 08:58:31;;;;;;;;;;;;;;;6.07;20.23;98735.97;6398615;27;19923;-63
2021/12/09 09:01:33;;;;;;;;;;;;;;;5.50;20.48;98734.22;6397792;27;19935;-63
2021/12/09 09:04:34;;;;;;;;;;;;;;;5.90;21.01;98731.00;6379879;27;19922;-63
2021/12/09 09:07:35;;;;;;;;;;;;;;;6.15;19.78;98733.25;6398199;27;20347;-63
2021/12/09 09:10:38;;;;;;;;;;;;;;;6.28;20.48;98737.34;6398306;27;20444;-63
2021/12/09 09:13:41;;;;;;;;;;;;;;;5.98;19.94;98736.13;6398125;27;19923;-63
2021/12/09 09:16:43;;;;;;;;;;;;;;;5.88;20.67;98740.59;6398108;27;19923;-63
2021/12/09 09:19:46;;;;;;;;;;;;;;;5.31;20.94;98728.41;6398212;27;19923;-64
2021/12/09 09:22:48;;;;;;;;;;;;;;;5.37;21.60;98736.13;6397853;27;19930;-63
2021/12/09 09:25:49;;;;;;;;;;;;;;;5.69;21.41;98729.59;6397399;27;19923;-63
2021/12/09 09:28:53;;;;;;;;;;;;;;;5.98;21.40;98721.31;6397971;27;19945;-62
2021/12/09 09:31:56;;;;;;;;;;;;;;;5.96;21.35;98737.91;6397952;27;19929;-64
2021/12/09 09:35:00;;;;;;;;;;;;;;;5.28;21.94;98735.41;6397974;27;19926;-64
2021/12/09 09:38:03;;;;;;;;;;;;;;;4.83;22.51;98727.31;6397071;27;19945;-63
2021/12/09 09:41:10;;;;;;;;;;;;;;;4.25;23.50;98739.25;6397690;27;19923;-63
2021/12/09 09:44:16;;;;;;;;;;;;;;;3.52;24.39;98727.69;6396591;27;20308;-64
2021/12/09 09:47:22;;;;;;;;;;;;;;;3.62;24.88;98733.69;6397753;27;20377;-63
2021/12/09 09:50:26;;;;;;;;;;;;;;;4.19;24.18;98731.47;6397245;27;19923;-63
2021/12/09 09:53:29;;;;;;;;;;;;;;;4.30;24.21;98724.41;6379517;27;20396;-63
2021/12/09 09:56:34;;;;;;;;;;;;;;;4.28;24.32;98727.03;6397501;27;19923;-64
2021/12/09 09:59:37;;;;;;;;;;;;;;;4.31;24.54;98720.94;6397591;27;19930;-63
2021/12/09 10:02:38;;;;;;;;;;;;;;;3.43;25.44;98705.19;6396163;27;19923;-63
2021/12/09 10:05:43;;;;;;;;;;;;;;;0.44;28.41;98711.53;6396213;27;19923;-64
2021/12/09 10:08:47;;;;;;;;;;;;;;;-2.66;33.21;98702.16;6378786;27;19923;-63
2021/12/09 10:11:48;;;;;;;;;;;;;;;-4.40;36.32;98704.63;6396297;27;19930;-64
2021/12/09 10:14:53;;;;;;;;;;;;;;;-5.68;39.87;98703.00;6397194;27;19923;-63
2021/12/09 10:17:54;;;;;;;;;;;;;;;-6.73;41.61;98714.34;6395775;27;19930;-64
2021/12/09 10:20:57;;;;;;;;;;;;;;;-7.58;43.29;98707.16;6397212;27;20327;-64
2021/12/09 10:24:02;;;;;;;;;;;;;;;-7.73;45.31;98713.47;6396265;27;19927;-65
2021/12/09 10:27:04;;;;;;;;;;;;;;;-7.89;46.22;98711.16;6395985;27;19923;-64
2021/12/09 10:30:19;;;;;;;;;;;;;;;-8.67;48.11;98706.47;6396997;27;19919;-64
2021/12/09 10:33:24;;;;;;;;;;;;;;;-8.94;49.16;98705.38;6396936;27;19923;-65
2021/12/09 10:36:44;;;;;;;;;;;;;;;-8.95;50.23;98706.16;6395959;27;19927;-64
2021/12/09 10:39:50;;;;;;;;;;;;;;;-9.42;51.33;98707.59;6396698;27;19923;-63
2021/12/09 10:42:53;;;;;;;;;;;;;;;-9.61;52.56;98709.34;6395550;27;19919;-66
2021/12/09 10:45:57;;;;;;;;;;;;;;;-9.98;53.19;98704.31;6396809;27;19923;-64
2021/12/09 10:49:09;;;;;;;;;;;;;;;-10.00;53.28;98704.22;6395658;27;20384;-65
2021/12/09 10:52:19;;;;;;;;;;;;;;;-10.06;53.87;98709.03;6395787;27;19930;-64
2021/12/09 10:55:26;;;;;;;;;;;;;;;-10.19;54.01;98709.28;6397372;27;19923;-64
2021/12/09 10:58:29;;;;;;;;;;;;;;;-10.23;54.46;98699.75;6400941;27;20029;-64
2021/12/09 11:01:35;;;;;;;;;;;;;;;-10.19;54.96;98711.81;6401553;27;19923;-64
2021/12/09 11:04:36;;;;;;;;;;;;;;;-10.33;55.07;98702.72;6400612;27;19930;-64
2021/12/09 11:07:37;;;;;;;;;;;;;;;-10.64;55.78;98706.38;6400149;27;19968;-63
2021/12/09 11:10:46;;;;;;;;;;;;;;;-10.69;56.42;98702.75;6400162;27;20550;-63
2021/12/09 11:13:47;;;;;;;;;;;;;;;-10.96;56.54;98707.34;6401034;27;20060;-63
2021/12/09 11:17:02;;;;;;;;;;;;;;;-11.28;57.39;98708.31;6401184;27;19923;-64
2021/12/09 11:20:04;;;;;;;;;;;;;;;-11.33;57.58;98711.50;6399870;27;19963;-64
2021/12/09 11:23:24;;;;;;;;;;;;;;;-11.32;58.42;98708.19;6400558;27;20411;-64
2021/12/09 11:26:38;;;;;;;;;;;;;;;-11.54;58.45;98695.19;6400763;27;20392;-63
2021/12/09 11:29:44;;;;;;;;;;;;;;;-11.70;58.44;98693.50;6399804;27;19999;-64
2021/12/09 11:32:50;;;;;;;;;;;;;;;-11.91;58.95;98693.31;6399276;27;19930;-64
2021/12/09 11:35:53;;;;;;;;;;;;;;;-11.93;59.58;98687.28;6400323;27;19930;-63
2021/12/09 11:39:07;;;;;;;;;;;;;;;-12.16;59.96;98681.00;6400386;27;20414;-64
2021/12/09 11:42:11;;;;;;;;;;;;;;;-12.14;59.87;98686.16;6400141;27;19927;-63
2021/12/09 11:45:15;;;;;;;;;;;;;;;-12.11;60.20;98691.41;6399906;27;19924;-65
2021/12/09 11:48:16;;;;;;;;;;;;;;;-12.30;60.40;98695.50;6400183;27;19923;-65
2021/12/09 11:51:21;;;;;;;;;;;;;;;-12.38;60.91;98689.13;6400190;27;19922;-64
2021/12/09 11:54:24;;;;;;;;;;;;;;;-12.50;61.24;98683.41;6399118;27;19923;-65
2021/12/09 12:07:53;;;;;;;;;;;;;;;-12.80;62.58;98682.59;6397693;27;19923;-67
2021/12/09 12:14:32;;;;;;;;;;;;;;;-13.17;63.53;98681.41;6353587;27;20079;-65
2021/12/09 12:17:53;;;;;;;;;;;;;;;-13.20;63.97;98678.69;6399744;27;20280;-64
2021/12/09 12:27:25;;;;;;;;;;;;;;;-13.32;64.62;98683.13;6399277;27;20299;-64
2021/12/09 12:37:18;;;;;;;;;;;;;;;-13.29;64.88;98675.69;6398352;27;19945;-64
2021/12/09 12:40:27;;;;;;;;;;;;;;;-13.24;65.33;98679.31;6398040;27;20212;-64
2021/12/09 12:43:30;;;;;;;;;;;;;;;-13.33;65.16;98680.47;6398753;27;19927;-65
2021/12/09 12:47:01;;;;;;;;;;;;;;;-13.45;65.89;98679.00;6398663;27;19923;-63
2021/12/09 12:50:09;;;;;;;;;;;;;;;-13.43;65.89;98679.09;6398556;27;19937;-64
2021/12/09 12:53:31;;;;;;;;;;;;;;;-13.44;65.83;98669.75;6398773;27;19923;-66
2021/12/09 12:56:39;;;;;;;;;;;;;;;-13.51;65.91;98667.66;6397542;27;19930;-64
2021/12/09 12:59:42;;;;;;;;;;;;;;;-13.57;66.54;98669.03;6398603;27;19930;-64
2021/12/09 13:09:17;;;;;;;;;;;;;;;-13.78;66.77;98672.88;6398262;27;19931;-64
2021/12/09 13:12:37;;;;;;;;;;;;;;;-13.80;66.93;98664.28;6398206;27;19923;-64
2021/12/09 13:15:58;;;;;;;;;;;;;;;-13.87;66.46;98658.00;6397359;27;19969;-64
2021/12/09 13:19:10;;;;;;;;;;;;;;;-13.83;67.13;98657.41;6396315;27;19930;-64
2021/12/09 13:22:27;;;;;;;;;;;;;;;-13.78;67.23;98647.56;6397787;27;20431;-64
2021/12/09 13:25:33;;;;;;;;;;;;;;;-13.76;67.26;98648.50;6397075;27;20303;-65
2021/12/09 13:28:43;;;;;;;;;;;;;;;-13.81;67.14;98640.66;6396786;27;19930;-64
2021/12/09 13:32:03;;;;;;;;;;;;;;;-13.88;67.20;98643.59;6396756;27;20396;-65
2021/12/09 13:35:10;;;;;;;;;;;;;;;-13.96;67.31;98643.94;6397129;27;19930;-64
2021/12/09 13:48:14;;;;;;;;;;;;;;;-14.41;67.27;98642.91;6397594;27;20273;-64
2021/12/09 13:51:40;;;;;;;;;;;;;;;-14.49;67.29;98638.28;6378804;27;19927;-64
2021/12/09 13:54:51;;;;;;;;;;;;;;;-14.54;67.14;98632.09;6397471;27;20295;-65
2021/12/09 13:57:57;;;;;;;;;;;;;;;-14.60;67.57;98629.22;6397564;27;19929;-64
2021/12/09 14:00:58;;;;;;;;;;;;;;;-14.60;67.58;98623.28;6395752;27;19934;-63
2021/12/09 14:04:06;;;;;;;;;;;;;;;-14.60;67.08;98629.22;6396126;27;20017;-65
2021/12/09 14:10:14;;;;;;;;;;;;;;;-14.65;66.96;98622.13;6396509;27;20415;-65
2021/12/09 14:13:19;;;;;;;;;;;;;;;-14.72;67.00;98618.34;6395946;27;19930;-65
2021/12/09 14:22:37;;;;;;;;;;;;;;;-14.75;66.52;98625.72;6395749;27;19923;-64
2021/12/09 14:25:40;;;;;;;;;;;;;;;-14.78;66.41;98617.97;6396729;27;20341;-63
2021/12/09 14:28:42;;;;;;;;;;;;;;;-14.80;66.35;98614.47;6395836;27;20423;-64
2021/12/09 14:31:47;;;;;;;;;;;;;;;-14.82;66.27;98616.03;6400060;27;20325;-64
2021/12/09 14:34:49;;;;;;;;;;;;;;;-14.81;66.19;98612.72;6400741;27;19923;-65
2021/12/09 14:37:51;;;;;;;;;;;;;;;-14.84;66.23;98603.31;6401930;27;19956;-64
2021/12/09 14:41:01;;;;;;;;;;;;;;;-14.82;66.17;98605.94;6402183;27;19927;-63
2021/12/09 14:44:08;;;;;;;;;;;;;;;-14.80;65.94;98594.25;6401306;27;19923;-63
2021/12/09 14:47:13;;;;;;;;;;;;;;;-14.79;66.01;98598.53;6400300;27;19930;-64
2021/12/09 14:50:16;;;;;;;;;;;;;;;-14.82;65.59;98595.81;6401622;27;19923;-64
2021/12/09 14:53:34;;;;;;;;;;;;;;;-14.86;65.67;98599.78;6400566;27;19930;-63
2021/12/09 14:56:41;;;;;;;;;;;;;;;-14.88;65.59;98600.50;6400539;27;19923;-64
2021/12/09 14:59:45;;;;;;;;;;;;;;;-14.90;65.29;98597.88;6400403;27;20299;-63
2021/12/09 15:02:52;;;;;;;;;;;;;;;-14.91;65.53;98596.13;6400660;27;20276;-64
2021/12/09 15:05:59;;;;;;;;;;;;;;;-14.94;65.45;98595.94;6401200;27;20010;-64
2021/12/09 15:09:20;;;;;;;;;;;;;;;-14.96;65.18;98588.25;6400831;27;19923;-64
2021/12/09 15:12:23;;;;;;;;;;;;;;;-15.01;65.03;98579.53;6400825;27;19929;-65
2021/12/09 15:15:26;;;;;;;;;;;;;;;-15.04;65.14;98564.19;6401082;27;19927;-64
2021/12/09 15:18:27;;;;;;;;;;;;;;;-15.05;64.62;98557.41;6400051;27;19923;-64
2021/12/09 15:21:30;;;;;;;;;;;;;;;-15.08;64.26;98552.16;6401113;27;19930;-63
2021/12/09 15:24:34;;;;;;;;;;;;;;;-15.13;64.43;98540.03;6400782;27;19923;-64
2021/12/09 15:27:47;;;;;;;;;;;;;;;-15.19;64.37;98538.00;6400792;27;20300;-64
2021/12/09 15:30:48;;;;;;;;;;;;;;;-15.26;64.37;98530.81;6382078;27;19927;-63
2021/12/09 15:33:52;;;;;;;;;;;;;;;-15.29;63.99;98530.63;6400135;27;19923;-63
2021/12/09 15:36:57;;;;;;;;;;;;;;;-15.34;63.95;98537.03;6400731;27;19923;-64
2021/12/09 15:40:01;;;;;;;;;;;;;;;-15.42;64.00;98544.16;6400727;27;20238;-65
2021/12/09 15:43:15;;;;;;;;;;;;;;;-15.47;64.00;98540.47;6400843;27;19923;-64
2021/12/09 15:46:16;;;;;;;;;;;;;;;-15.53;63.88;98543.47;6399721;27;19973;-64
2021/12/09 15:49:18;;;;;;;;;;;;;;;-15.60;63.58;98543.84;6400336;27;20301;-65
2021/12/09 15:52:21;;;;;;;;;;;;;;;-15.60;63.69;98543.84;6381931;27;19919;-64
2021/12/09 15:55:24;;;;;;;;;;;;;;;-15.62;63.67;98530.28;6400003;27;19923;-62
2021/12/09 15:58:34;;;;;;;;;;;;;;;-15.66;63.43;98533.38;6400071;27;20392;-64
2021/12/09 16:01:37;;;;;;;;;;;;;;;-15.68;63.26;98534.94;6399853;27;19919;-63
2021/12/09 16:04:43;;;;;;;;;;;;;;;-15.71;63.09;98525.56;6399895;27;19923;-64
2021/12/09 16:07:44;;;;;;;;;;;;;;;-15.70;63.03;98531.47;6399091;27;19923;-65
2021/12/09 16:10:46;;;;;;;;;;;;;;;-15.72;63.13;98523.78;6398928;27;19923;-64
2021/12/09 16:13:57;;;;;;;;;;;;;;;-15.70;63.01;98516.34;6398745;27;19923;-63
2021/12/09 16:17:03;;;;;;;;;;;;;;;-15.71;62.75;98514.56;6399172;27;19934;-64
2021/12/09 16:20:07;;;;;;;;;;;;;;;-15.72;62.93;98515.34;6398962;27;19980;-64
2021/12/09 16:23:09;;;;;;;;;;;;;;;-15.73;62.84;98511.09;6398870;27;19929;-65
2021/12/09 16:26:12;;;;;;;;;;;;;;;-15.75;62.63;98512.63;6399507;27;20331;-64
2021/12/09 16:29:16;;;;;;;;;;;;;;;-15.78;62.45;98512.44;6399471;27;19929;-63
2021/12/09 16:32:20;;;;;;;;;;;;;;;-15.82;62.52;98521.47;6399436;27;19929;-65
2021/12/09 16:35:23;;;;;;;;;;;;;;;-15.81;62.70;98509.72;6398204;27;19923;-63
2021/12/09 16:38:28;;;;;;;;;;;;;;;-15.82;62.43;98506.34;6399054;27;19922;-63
2021/12/09 16:41:29;;;;;;;;;;;;;;;-15.83;62.42;98501.19;6398220;27;20001;-64
2021/12/09 16:44:30;;;;;;;;;;;;;;;-15.87;62.20;98503.53;6398129;27;19923;-64
2021/12/09 16:47:33;;;;;;;;;;;;;;;-15.91;61.98;98495.66;6399240;27;19960;-63